Yellowstone National Park, WY

10:06 AM MDT on August 29, 2014 (GMT -0600)
Yellowstone | Change Station
CLOSE
Current Station
Airport
Location: Yellowstone,
Elevation: 7835 ft
Nearby Weather Stations

Elev 7835 ft 44.54 °N, 110.42 °W | Updated 10 minutes ago

Partly Cloudy
Partly Cloudy
54 °F
Feels Like 54 °F
N
0
Wind Variable Wind from North
Gusts 13 mph

Today
High -- | Low -- °F
--% Chance of Precip.
Yesterday
High -- | Low -- °F
Precip. -- in
6:40 AM 8:03 PM
Waxing Crescent, 15% visible
Pressure 30.13 in
Visibility -9999.0 miles
Clouds
Dew Point 47 °F
Humidity 77%
Rainfall 0.02 in
Snow Depth Not available.
UV Not available.
Pollen 6.90 out of 12
Air Quality Not available.
Flu Activity Not available.
METAR KP60 291556Z AUTO 00000KT 12/08 A3031 RMK AO1 SLP202 T01220083

More Conditions Fewer Conditions

Pressure 30.13 in
Visibility -9999.0 miles
Clouds
Dew Point 47 °F
Humidity 77%
Rainfall 0.02 in
Snow Depth Not available.
UV Not available.
Pollen 6.90 out of 12
Air Quality Not available.
Flu Activity Not available.
METAR KP60 291556Z AUTO 00000KT 12/08 A3031 RMK AO1 SLP202 T01220083

More Conditions Fewer Conditions

10-Day Weather Forecast

Almanac

Astronomy

Aug. 29, 2014 Rise Set
Actual Time 6:40 AM MDT 8:03 PM MDT
Civil Twilight 6:10 AM MDT 8:34 PM MDT
Nautical Twilight 5:33 AM MDT 9:10 PM MDT
Astronomical Twilight 4:54 AM MDT 9:49 PM MDT
Moon 10:45 AM MDT 9:51 PM MDT
Length of Visible Light 14h 24m
Length of Day
13h 23m
Tomorrow will be 2m 59s shorter.
Waxing Crescent, 15% of the Moon is Illuminated
Today
Waxing Crescent
Sep 2
First Quarter
Sep 8
Full
Sep 15
Last Quarter
Sep 24
New

Today's Extremes

State Highs State Lows

Community

WunderPhotos

Upload Photos

1,748,270 photos uploaded!

Nearby

Snow Depth

Station Depth Elevation
Parker Peak 0 in 9400 ft
Sylvan Lake 0 in 8420 ft
Evening Star 0 in 9200 ft
Beartooth Lake 0 in 9275 ft
Blackwater 0 in 9780 ft

Earthquake Activity

City Distance Mag. Time & Date
No recent earthquake activity has been reported nearby.
Minimum magnitude displayed is 2.5.

Coastal Water Temperatures

Place Temperature
No Stations Reporting

Nearby Weather Stations